Terminal Aerodrome Forecast
Issued by NWS Charleston, WV

Home | Current Version | Previous Version | Text Only | Print | Product List | Glossary On
Versions: 1 2 3 4 5 6 7 8 9 10 11 12 13 14 15 16 17 18 19 20 21 22 23 24 25 26 27
455
FTUS41 KRLX 251724
TAFBKW
TAF
KBKW 251724Z 2518/2618 05004KT P6SM BKN020 OVC025
     FM260400 VRB03KT 5SM BR SCT025
     FM260600 00000KT 2SM BR SCT025=

USA.gov is the U.S. government's official web portal to all federal, state and local government web resources and services.